sensor_id;sensor_type;location;lat;lon;timestamp;temperature;humidity
40654;DHT22;26344;45.532;9.232;2024-01-15T00:01:02;7.80;99.90
40654;DHT22;26344;45.532;9.232;2024-01-15T00:03:28;8.50;99.90
40654;DHT22;26344;45.532;9.232;2024-01-15T00:05:54;10.00;99.90
40654;DHT22;26344;45.532;9.232;2024-01-15T00:08:19;8.40;99.90
40654;DHT22;26344;45.532;9.232;2024-01-15T00:10:45;9.00;99.90
40654;DHT22;26344;45.532;9.232;2024-01-15T00:13:10;8.50;99.90
40654;DHT22;26344;45.532;9.232;2024-01-15T00:15:36;8.40;99.90
40654;DHT22;26344;45.532;9.232;2024-01-15T00:18:01;8.50;99.90
40654;DHT22;26344;45.532;9.232;2024-01-15T00:20:27;8.40;99.90
40654;DHT22;26344;45.532;9.232;2024-01-15T00:22:52;8.40;99.90
40654;DHT22;26344;45.532;9.232;2024-01-15T00:25:18;10.20;99.90
40654;DHT22;26344;45.532;9.232;2024-01-15T00:27:43;8.80;99.90
40654;DHT22;26344;45.532;9.232;2024-01-15T00:30:09;9.30;99.90
40654;DHT22;26344;45.532;9.232;2024-01-15T00:32:35;8.30;99.90
40654;DHT22;26344;45.532;9.232;2024-01-15T00:35:00;8.30;99.90
40654;DHT22;26344;45.532;9.232;2024-01-15T00:37:25;10.50;99.90
40654;DHT22;26344;45.532;9.232;2024-01-15T00:39:51;8.10;99.90
40654;DHT22;26344;45.532;9.232;2024-01-15T00:42:16;8.30;99.90
40654;DHT22;26344;45.532;9.232;2024-01-15T00:44:42;8.10;99.90
40654;DHT22;26344;45.532;9.232;2024-01-15T00:47:07;9.70;99.90
40654;DHT22;26344;45.532;9.232;2024-01-15T00:49:33;8.30;99.90
40654;DHT22;26344;45.532;9.232;2024-01-15T00:51:58;8.40;99.90
40654;DHT22;26344;45.532;9.232;2024-01-15T00:54:24;8.20;99.90
40654;DHT22;26344;45.532;9.232;2024-01-15T00:56:49;8.20;99.90
40654;DHT22;26344;45.532;9.232;2024-01-15T00:59:15;8.40;99.90
40654;DHT22;26344;45.532;9.232;2024-01-15T01:01:41;8.70;99.90
40654;DHT22;26344;45.532;9.232;2024-01-15T01:04:09;8.30;99.90
40654;DHT22;26344;45.532;9.232;2024-01-15T01:06:34;9.70;99.90
40654;DHT22;26344;45.532;9.232;2024-01-15T01:09:00;8.40;99.90
40654;DHT22;26344;45.532;9.232;2024-01-15T01:11:25;8.80;99.90
40654;DHT22;26344;45.532;9.232;2024-01-15T01:13:51;10.20;99.90
40654;DHT22;26344;45.532;9.232;2024-01-15T01:16:16;8.40;99.90
40654;DHT22;26344;45.532;9.232;2024-01-15T01:18:42;8.50;99.90
40654;DHT22;26344;45.532;9.232;2024-01-15T01:21:07;9.50;99.90
40654;DHT22;26344;45.532;9.232;2024-01-15T01:23:33;8.50;99.90
40654;DHT22;26344;45.532;9.232;2024-01-15T01:25:58;8.20;99.90
40654;DHT22;26344;45.532;9.232;2024-01-15T01:28:24;9.90;99.90
40654;DHT22;26344;45.532;9.232;2024-01-15T01:30:49;9.40;99.90
40654;DHT22;26344;45.532;9.232;2024-01-15T01:33:15;8.50;99.90
40654;DHT22;26344;45.532;9.232;2024-01-15T01:35:40;8.10;99.90
40654;DHT22;26344;45.532;9.232;2024-01-15T01:38:06;8.30;99.90
40654;DHT22;26344;45.532;9.232;2024-01-15T01:40:31;10.60;99.90
40654;DHT22;26344;45.532;9.232;2024-01-15T01:42:57;8.10;99.90
40654;DHT22;26344;45.532;9.232;2024-01-15T01:45:22;8.00;99.90
40654;DHT22;26344;45.532;9.232;2024-01-15T01:47:48;8.40;99.90
40654;DHT22;26344;45.532;9.232;2024-01-15T01:50:13;8.30;99.90
40654;DHT22;26344;45.532;9.232;2024-01-15T01:52:39;10.30;99.90
40654;DHT22;26344;45.532;9.232;2024-01-15T01:55:05;8.90;99.90
40654;DHT22;26344;45.532;9.232;2024-01-15T01:57:31;8.50;99.90
40654;DHT22;26344;45.532;9.232;2024-01-15T01:59:59;8.30;99.90
40654;DHT22;26344;45.532;9.232;2024-01-15T02:02:24;8.40;99.90
40654;DHT22;26344;45.532;9.232;2024-01-15T02:04:50;8.60;99.90
40654;DHT22;26344;45.532;9.232;2024-01-15T02:07:16;10.90;99.90
40654;DHT22;26344;45.532;9.232;2024-01-15T02:09:44;8.40;99.90
40654;DHT22;26344;45.532;9.232;2024-01-15T02:12:09;10.10;99.90
40654;DHT22;26344;45.532;9.232;2024-01-15T02:14:35;8.40;99.90
40654;DHT22;26344;45.532;9.232;2024-01-15T02:17:02;8.60;99.90
40654;DHT22;26344;45.532;9.232;2024-01-15T02:19:27;8.50;99.90
40654;DHT22;26344;45.532;9.232;2024-01-15T02:21:53;8.40;99.90
40654;DHT22;26344;45.532;9.232;2024-01-15T02:24:19;9.80;99.90
40654;DHT22;26344;45.532;9.232;2024-01-15T02:26:44;8.40;99.90
40654;DHT22;26344;45.532;9.232;2024-01-15T02:29:10;8.80;99.90
40654;DHT22;26344;45.532;9.232;2024-01-15T02:31:35;8.60;99.90
40654;DHT22;26344;45.532;9.232;2024-01-15T02:34:01;8.60;99.90
40654;DHT22;26344;45.532;9.232;2024-01-15T02:36:26;8.50;99.90
40654;DHT22;26344;45.532;9.232;2024-01-15T02:38:52;8.40;99.90
40654;DHT22;26344;45.532;9.232;2024-01-15T02:41:17;8.90;99.90
40654;DHT22;26344;45.532;9.232;2024-01-15T02:43:43;10.00;99.90
40654;DHT22;26344;45.532;9.232;2024-01-15T02:46:08;8.60;99.90
40654;DHT22;26344;45.532;9.232;2024-01-15T02:48:34;10.40;99.90
40654;DHT22;26344;45.532;9.232;2024-01-15T02:51:02;9.80;99.90
40654;DHT22;26344;45.532;9.232;2024-01-15T02:53:28;8.60;99.90
40654;DHT22;26344;45.532;9.232;2024-01-15T02:55:54;11.40;99.90
40654;DHT22;26344;45.532;9.232;2024-01-15T02:58:20;8.70;99.90
40654;DHT22;26344;45.532;9.232;2024-01-15T03:00:46;8.70;99.90
40654;DHT22;26344;45.532;9.232;2024-01-15T03:03:12;8.40;99.90
40654;DHT22;26344;45.532;9.232;2024-01-15T03:05:37;9.30;99.90
40654;DHT22;26344;45.532;9.232;2024-01-15T03:08:03;9.00;99.90
40654;DHT22;26344;45.532;9.232;2024-01-15T03:10:28;8.40;99.90
40654;DHT22;26344;45.532;9.232;2024-01-15T03:12:54;8.50;99.90
40654;DHT22;26344;45.532;9.232;2024-01-15T03:15:19;9.10;99.90
40654;DHT22;26344;45.532;9.232;2024-01-15T03:17:44;8.20;99.90
40654;DHT22;26344;45.532;9.232;2024-01-15T03:20:10;8.40;99.90
40654;DHT22;26344;45.532;9.232;2024-01-15T03:22:36;8.00;99.90
40654;DHT22;26344;45.532;9.232;2024-01-15T03:25:01;8.60;99.90
40654;DHT22;26344;45.532;9.232;2024-01-15T03:27:27;8.40;99.90
40654;DHT22;26344;45.532;9.232;2024-01-15T03:29:52;8.10;99.90
40654;DHT22;26344;45.532;9.232;2024-01-15T03:32:18;8.20;99.90
40654;DHT22;26344;45.532;9.232;2024-01-15T03:34:44;9.00;99.90
40654;DHT22;26344;45.532;9.232;2024-01-15T03:37:11;10.70;99.90
40654;DHT22;26344;45.532;9.232;2024-01-15T03:39:36;8.90;99.90
40654;DHT22;26344;45.532;9.232;2024-01-15T03:42:02;8.50;99.90
40654;DHT22;26344;45.532;9.232;2024-01-15T03:44:27;8.60;99.90
40654;DHT22;26344;45.532;9.232;2024-01-15T03:46:53;8.60;99.90
40654;DHT22;26344;45.532;9.232;2024-01-15T03:49:18;8.50;99.90
40654;DHT22;26344;45.532;9.232;2024-01-15T03:51:44;9.80;99.90
40654;DHT22;26344;45.532;9.232;2024-01-15T03:54:09;10.30;99.90
40654;DHT22;26344;45.532;9.232;2024-01-15T03:56:35;8.60;99.90
40654;DHT22;26344;45.532;9.232;2024-01-15T03:59:00;8.60;99.90
40654;DHT22;26344;45.532;9.232;2024-01-15T04:01:26;8.30;99.90
40654;DHT22;26344;45.532;9.232;2024-01-15T04:03:51;8.00;99.90
40654;DHT22;26344;45.532;9.232;2024-01-15T04:06:17;8.60;99.90
40654;DHT22;26344;45.532;9.232;2024-01-15T04:08:42;8.50;99.90
40654;DHT22;26344;45.532;9.232;2024-01-15T04:11:08;8.40;99.90
40654;DHT22;26344;45.532;9.232;2024-01-15T04:13:33;8.30;99.90
40654;DHT22;26344;45.532;9.232;2024-01-15T04:15:59;8.00;99.90
40654;DHT22;26344;45.532;9.232;2024-01-15T04:18:25;10.10;99.90
40654;DHT22;26344;45.532;9.232;2024-01-15T04:20:51;9.20;99.90
40654;DHT22;26344;45.532;9.232;2024-01-15T04:23:16;7.90;99.90
40654;DHT22;26344;45.532;9.232;2024-01-15T04:25:42;8.20;99.90
40654;DHT22;26344;45.532;9.232;2024-01-15T04:28:08;7.80;99.90
40654;DHT22;26344;45.532;9.232;2024-01-15T04:30:34;7.90;99.90
40654;DHT22;26344;45.532;9.232;2024-01-15T04:32:59;8.20;99.90
40654;DHT22;26344;45.532;9.232;2024-01-15T04:35:25;10.60;99.90
40654;DHT22;26344;45.532;9.232;2024-01-15T04:37:50;8.20;99.90
40654;DHT22;26344;45.532;9.232;2024-01-15T04:40:16;8.60;99.90
40654;DHT22;26344;45.532;9.232;2024-01-15T04:42:41;8.20;99.90
40654;DHT22;26344;45.532;9.232;2024-01-15T04:45:07;6.90;99.90
40654;DHT22;26344;45.532;9.232;2024-01-15T04:47:32;8.10;99.90
40654;DHT22;26344;45.532;9.232;2024-01-15T04:49:58;8.00;99.90
40654;DHT22;26344;45.532;9.232;2024-01-15T04:52:23;8.10;99.90
40654;DHT22;26344;45.532;9.232;2024-01-15T04:54:49;7.80;99.90
40654;DHT22;26344;45.532;9.232;2024-01-15T04:57:15;9.70;99.90
40654;DHT22;26344;45.532;9.232;2024-01-15T04:59:40;9.90;99.90
40654;DHT22;26344;45.532;9.232;2024-01-15T05:02:06;7.70;99.90
40654;DHT22;26344;45.532;9.232;2024-01-15T05:04:31;7.90;99.90
40654;DHT22;26344;45.532;9.232;2024-01-15T05:06:58;8.00;99.90
40654;DHT22;26344;45.532;9.232;2024-01-15T05:09:23;7.80;99.90
40654;DHT22;26344;45.532;9.232;2024-01-15T05:11:49;7.90;99.90
40654;DHT22;26344;45.532;9.232;2024-01-15T05:14:14;7.90;99.90
40654;DHT22;26344;45.532;9.232;2024-01-15T05:16:43;7.70;99.90
40654;DHT22;26344;45.532;9.232;2024-01-15T05:19:11;8.00;99.90
40654;DHT22;26344;45.532;9.232;2024-01-15T05:21:37;8.10;99.90
40654;DHT22;26344;45.532;9.232;2024-01-15T05:24:02;7.90;99.90
40654;DHT22;26344;45.532;9.232;2024-01-15T05:26:28;8.00;99.90
40654;DHT22;26344;45.532;9.232;2024-01-15T05:28:53;8.90;99.90
40654;DHT22;26344;45.532;9.232;2024-01-15T05:31:18;9.60;99.90
40654;DHT22;26344;45.532;9.232;2024-01-15T05:33:44;7.70;99.90
40654;DHT22;26344;45.532;9.232;2024-01-15T05:36:10;7.80;99.90
40654;DHT22;26344;45.532;9.232;2024-01-15T05:38:35;8.00;99.90
40654;DHT22;26344;45.532;9.232;2024-01-15T05:41:01;7.90;99.90
40654;DHT22;26344;45.532;9.232;2024-01-15T05:43:26;7.90;99.90
40654;DHT22;26344;45.532;9.232;2024-01-15T05:45:52;10.60;99.90
40654;DHT22;26344;45.532;9.232;2024-01-15T05:48:18;7.90;99.90
40654;DHT22;26344;45.532;9.232;2024-01-15T05:50:44;8.20;99.90
40654;DHT22;26344;45.532;9.232;2024-01-15T05:53:09;10.10;99.90
40654;DHT22;26344;45.532;9.232;2024-01-15T05:55:35;7.90;99.90
40654;DHT22;26344;45.532;9.232;2024-01-15T05:58:01;7.80;99.90
40654;DHT22;26344;45.532;9.232;2024-01-15T06:00:26;7.90;99.90
40654;DHT22;26344;45.532;9.232;2024-01-15T06:02:52;8.10;99.90
40654;DHT22;26344;45.532;9.232;2024-01-15T06:05:17;7.90;99.90
40654;DHT22;26344;45.532;9.232;2024-01-15T06:07:43;7.80;99.90
40654;DHT22;26344;45.532;9.232;2024-01-15T06:10:08;7.80;99.90
40654;DHT22;26344;45.532;9.232;2024-01-15T06:12:34;8.00;99.90
40654;DHT22;26344;45.532;9.232;2024-01-15T06:15:00;8.00;99.90
40654;DHT22;26344;45.532;9.232;2024-01-15T06:17:25;8.20;99.90
40654;DHT22;26344;45.532;9.232;2024-01-15T06:19:50;7.80;99.90
40654;DHT22;26344;45.532;9.232;2024-01-15T06:22:16;8.20;99.90
40654;DHT22;26344;45.532;9.232;2024-01-15T06:24:41;8.10;99.90
40654;DHT22;26344;45.532;9.232;2024-01-15T06:27:07;9.50;99.90
40654;DHT22;26344;45.532;9.232;2024-01-15T06:29:33;8.30;99.90
40654;DHT22;26344;45.532;9.232;2024-01-15T06:31:58;8.30;99.90
40654;DHT22;26344;45.532;9.232;2024-01-15T06:34:24;8.20;99.90
40654;DHT22;26344;45.532;9.232;2024-01-15T06:36:49;8.30;99.90
40654;DHT22;26344;45.532;9.232;2024-01-15T06:39:15;8.10;99.90
40654;DHT22;26344;45.532;9.232;2024-01-15T06:41:40;8.30;99.90
40654;DHT22;26344;45.532;9.232;2024-01-15T06:44:09;8.50;99.90
40654;DHT22;26344;45.532;9.232;2024-01-15T06:46:35;8.40;99.90
40654;DHT22;26344;45.532;9.232;2024-01-15T06:49:01;7.90;99.90
40654;DHT22;26344;45.532;9.232;2024-01-15T06:51:26;8.70;99.90
40654;DHT22;26344;45.532;9.232;2024-01-15T06:53:52;10.60;99.90
40654;DHT22;26344;45.532;9.232;2024-01-15T06:56:17;8.70;99.90
40654;DHT22;26344;45.532;9.232;2024-01-15T06:58:43;9.10;99.90
40654;DHT22;26344;45.532;9.232;2024-01-15T07:01:08;8.10;99.90
40654;DHT22;26344;45.532;9.232;2024-01-15T07:03:34;8.00;99.90
40654;DHT22;26344;45.532;9.232;2024-01-15T07:05:59;7.90;99.90
40654;DHT22;26344;45.532;9.232;2024-01-15T07:08:25;8.30;99.90
40654;DHT22;26344;45.532;9.232;2024-01-15T07:10:51;8.00;99.90
40654;DHT22;26344;45.532;9.232;2024-01-15T07:13:16;8.20;99.90
40654;DHT22;26344;45.532;9.232;2024-01-15T07:15:43;8.00;99.90
40654;DHT22;26344;45.532;9.232;2024-01-15T07:18:08;8.00;99.90
40654;DHT22;26344;45.532;9.232;2024-01-15T07:20:33;7.70;99.90
40654;DHT22;26344;45.532;9.232;2024-01-15T07:22:59;7.80;99.90
40654;DHT22;26344;45.532;9.232;2024-01-15T07:25:25;8.00;99.90
40654;DHT22;26344;45.532;9.232;2024-01-15T07:27:51;8.00;99.90
40654;DHT22;26344;45.532;9.232;2024-01-15T07:30:19;7.50;99.90
40654;DHT22;26344;45.532;9.232;2024-01-15T07:32:44;8.60;99.90
40654;DHT22;26344;45.532;9.232;2024-01-15T07:35:10;7.50;99.90
40654;DHT22;26344;45.532;9.232;2024-01-15T07:37:35;7.70;99.90
40654;DHT22;26344;45.532;9.232;2024-01-15T07:40:01;7.70;99.90
40654;DHT22;26344;45.532;9.232;2024-01-15T07:42:26;7.50;99.90
40654;DHT22;26344;45.532;9.232;2024-01-15T07:44:52;7.50;99.90
40654;DHT22;26344;45.532;9.232;2024-01-15T07:47:17;7.30;99.90
40654;DHT22;26344;45.532;9.232;2024-01-15T07:49:43;7.60;99.90
40654;DHT22;26344;45.532;9.232;2024-01-15T07:52:09;7.30;99.90
40654;DHT22;26344;45.532;9.232;2024-01-15T07:54:35;7.40;99.90
40654;DHT22;26344;45.532;9.232;2024-01-15T07:57:01;7.60;99.90
40654;DHT22;26344;45.532;9.232;2024-01-15T07:59:28;7.80;99.90
40654;DHT22;26344;45.532;9.232;2024-01-15T08:01:58;7.60;99.90
40654;DHT22;26344;45.532;9.232;2024-01-15T08:04:24;7.60;99.90
40654;DHT22;26344;45.532;9.232;2024-01-15T08:06:49;7.80;99.90
40654;DHT22;26344;45.532;9.232;2024-01-15T08:09:15;7.50;99.90
40654;DHT22;26344;45.532;9.232;2024-01-15T08:11:40;7.60;99.90
40654;DHT22;26344;45.532;9.232;2024-01-15T08:14:09;7.70;99.90
40654;DHT22;26344;45.532;9.232;2024-01-15T08:16:36;7.70;99.90
40654;DHT22;26344;45.532;9.232;2024-01-15T08:19:09;7.80;99.90
40654;DHT22;26344;45.532;9.232;2024-01-15T08:21:34;7.60;99.90
40654;DHT22;26344;45.532;9.232;2024-01-15T08:24:00;7.80;99.90
40654;DHT22;26344;45.532;9.232;2024-01-15T08:26:26;7.90;99.90
40654;DHT22;26344;45.532;9.232;2024-01-15T08:28:51;8.00;99.90
40654;DHT22;26344;45.532;9.232;2024-01-15T08:31:17;10.40;99.90
40654;DHT22;26344;45.532;9.232;2024-01-15T08:33:42;7.00;99.90
40654;DHT22;26344;45.532;9.232;2024-01-15T08:36:11;7.90;99.90
40654;DHT22;26344;45.532;9.232;2024-01-15T08:38:37;8.00;99.90
40654;DHT22;26344;45.532;9.232;2024-01-15T08:41:02;8.00;99.90
40654;DHT22;26344;45.532;9.232;2024-01-15T08:43:28;8.00;99.90
40654;DHT22;26344;45.532;9.232;2024-01-15T08:45:53;7.90;99.90
40654;DHT22;26344;45.532;9.232;2024-01-15T08:48:19;7.80;99.90
40654;DHT22;26344;45.532;9.232;2024-01-15T08:50:45;7.90;99.90
40654;DHT22;26344;45.532;9.232;2024-01-15T08:53:13;8.10;99.90
40654;DHT22;26344;45.532;9.232;2024-01-15T08:55:39;8.70;99.90
40654;DHT22;26344;45.532;9.232;2024-01-15T08:58:05;8.10;99.90
40654;DHT22;26344;45.532;9.232;2024-01-15T09:00:31;7.60;99.90
40654;DHT22;26344;45.532;9.232;2024-01-15T09:02:57;8.10;99.90
40654;DHT22;26344;45.532;9.232;2024-01-15T09:05:22;8.00;99.90
40654;DHT22;26344;45.532;9.232;2024-01-15T09:07:48;11.20;99.90
40654;DHT22;26344;45.532;9.232;2024-01-15T09:10:17;8.10;99.90
40654;DHT22;26344;45.532;9.232;2024-01-15T09:12:42;8.50;99.90
40654;DHT22;26344;45.532;9.232;2024-01-15T09:15:08;9.30;99.90
40654;DHT22;26344;45.532;9.232;2024-01-15T09:17:40;8.10;99.90
40654;DHT22;26344;45.532;9.232;2024-01-15T09:20:09;8.20;99.90
40654;DHT22;26344;45.532;9.232;2024-01-15T09:22:35;8.10;99.90
40654;DHT22;26344;45.532;9.232;2024-01-15T09:25:01;8.10;99.90
40654;DHT22;26344;45.532;9.232;2024-01-15T09:27:26;8.30;99.90
40654;DHT22;26344;45.532;9.232;2024-01-15T09:29:53;8.30;99.90
40654;DHT22;26344;45.532;9.232;2024-01-15T09:32:18;8.40;99.90
40654;DHT22;26344;45.532;9.232;2024-01-15T09:34:45;8.50;99.90
40654;DHT22;26344;45.532;9.232;2024-01-15T09:37:11;9.20;99.90
40654;DHT22;26344;45.532;9.232;2024-01-15T09:39:37;8.60;99.90
40654;DHT22;26344;45.532;9.232;2024-01-15T09:42:03;8.30;99.90
40654;DHT22;26344;45.532;9.232;2024-01-15T09:44:28;8.50;99.90
40654;DHT22;26344;45.532;9.232;2024-01-15T09:46:55;8.50;99.90
40654;DHT22;26344;45.532;9.232;2024-01-15T09:49:20;8.50;99.90
40654;DHT22;26344;45.532;9.232;2024-01-15T09:51:46;8.60;99.90
40654;DHT22;26344;45.532;9.232;2024-01-15T09:54:12;8.70;99.90
40654;DHT22;26344;45.532;9.232;2024-01-15T09:56:38;8.80;99.90
40654;DHT22;26344;45.532;9.232;2024-01-15T09:59:04;9.80;99.90
40654;DHT22;26344;45.532;9.232;2024-01-15T10:01:33;11.20;99.90
40654;DHT22;26344;45.532;9.232;2024-01-15T10:04:03;13.30;99.90
40654;DHT22;26344;45.532;9.232;2024-01-15T10:06:29;13.80;99.90
40654;DHT22;26344;45.532;9.232;2024-01-15T10:11:36;15.60;98.90
40654;DHT22;26344;45.532;9.232;2024-01-15T10:14:02;16.20;97.90
40654;DHT22;26344;45.532;9.232;2024-01-15T10:16:28;16.80;96.80
40654;DHT22;26344;45.532;9.232;2024-01-15T10:18:53;16.20;96.00
40654;DHT22;26344;45.532;9.232;2024-01-15T10:21:19;15.60;96.20
40654;DHT22;26344;45.532;9.232;2024-01-15T10:23:45;15.20;97.00
40654;DHT22;26344;45.532;9.232;2024-01-15T10:26:11;14.80;97.10
40654;DHT22;26344;45.532;9.232;2024-01-15T10:28:37;14.50;97.40
40654;DHT22;26344;45.532;9.232;2024-01-15T10:31:02;14.20;97.60
40654;DHT22;26344;45.532;9.232;2024-01-15T10:33:28;14.00;97.90
40654;DHT22;26344;45.532;9.232;2024-01-15T10:35:57;13.90;98.00
40654;DHT22;26344;45.532;9.232;2024-01-15T10:38:24;14.00;98.40
40654;DHT22;26344;45.532;9.232;2024-01-15T10:43:19;14.10;98.00
40654;DHT22;26344;45.532;9.232;2024-01-15T10:45:45;14.50;98.10
40654;DHT22;26344;45.532;9.232;2024-01-15T10:48:11;14.50;98.30
40654;DHT22;26344;45.532;9.232;2024-01-15T10:50:37;15.30;98.20
40654;DHT22;26344;45.532;9.232;2024-01-15T10:53:02;19.40;98.10
40654;DHT22;26344;45.532;9.232;2024-01-15T10:55:28;25.20;85.50
40654;DHT22;26344;45.532;9.232;2024-01-15T10:57:55;23.60;82.80
40654;DHT22;26344;45.532;9.232;2024-01-15T11:02:47;29.30;71.80
40654;DHT22;26344;45.532;9.232;2024-01-15T11:05:13;30.70;68.50
40654;DHT22;26344;45.532;9.232;2024-01-15T11:07:39;31.70;64.30
40654;DHT22;26344;45.532;9.232;2024-01-15T11:10:05;33.20;60.20
40654;DHT22;26344;45.532;9.232;2024-01-15T11:12:30;33.90;59.60
40654;DHT22;26344;45.532;9.232;2024-01-15T11:15:03;32.80;56.70
40654;DHT22;26344;45.532;9.232;2024-01-15T11:18:19;35.30;56.00
40654;DHT22;26344;45.532;9.232;2024-01-15T11:20:20;35.80;55.30
40654;DHT22;26344;45.532;9.232;2024-01-15T11:25:14;36.90;53.30
40654;DHT22;26344;45.532;9.232;2024-01-15T11:27:44;37.20;52.30
40654;DHT22;26344;45.532;9.232;2024-01-15T11:30:10;37.40;51.40
40654;DHT22;26344;45.532;9.232;2024-01-15T11:32:36;37.50;50.90
40654;DHT22;26344;45.532;9.232;2024-01-15T11:35:02;37.80;50.40
40654;DHT22;26344;45.532;9.232;2024-01-15T11:40:12;37.90;49.20
40654;DHT22;26344;45.532;9.232;2024-01-15T11:42:39;37.90;49.40
40654;DHT22;26344;45.532;9.232;2024-01-15T11:45:05;38.00;48.80
40654;DHT22;26344;45.532;9.232;2024-01-15T11:47:38;38.30;48.70
40654;DHT22;26344;45.532;9.232;2024-01-15T11:50:05;38.60;48.40
40654;DHT22;26344;45.532;9.232;2024-01-15T11:52:38;39.40;48.50
40654;DHT22;26344;45.532;9.232;2024-01-15T11:55:19;39.90;47.40
40654;DHT22;26344;45.532;9.232;2024-01-15T11:57:50;40.10;47.30
40654;DHT22;26344;45.532;9.232;2024-01-15T12:00:16;40.50;46.80
40654;DHT22;26344;45.532;9.232;2024-01-15T12:02:42;40.80;46.60
40654;DHT22;26344;45.532;9.232;2024-01-15T12:14:27;41.90;46.40
40654;DHT22;26344;45.532;9.232;2024-01-15T12:20:00;41.20;47.00
40654;DHT22;26344;45.532;9.232;2024-01-15T12:22:26;41.80;47.20
40654;DHT22;26344;45.532;9.232;2024-01-15T12:24:53;41.50;44.40
40654;DHT22;26344;45.532;9.232;2024-01-15T12:27:23;41.40;44.40
40654;DHT22;26344;45.532;9.232;2024-01-15T12:29:48;41.10;44.00
40654;DHT22;26344;45.532;9.232;2024-01-15T12:32:14;40.40;44.60
40654;DHT22;26344;45.532;9.232;2024-01-15T12:34:39;40.10;43.70
40654;DHT22;26344;45.532;9.232;2024-01-15T12:37:06;39.50;43.60
40654;DHT22;26344;45.532;9.232;2024-01-15T12:39:33;39.20;43.80
40654;DHT22;26344;45.532;9.232;2024-01-15T12:41:59;38.60;43.70
40654;DHT22;26344;45.532;9.232;2024-01-15T12:44:25;38.10;44.50
40654;DHT22;26344;45.532;9.232;2024-01-15T12:46:51;37.90;45.20
40654;DHT22;26344;45.532;9.232;2024-01-15T12:49:16;37.70;44.10
40654;DHT22;26344;45.532;9.232;2024-01-15T12:51:42;37.40;44.30
40654;DHT22;26344;45.532;9.232;2024-01-15T12:54:08;37.30;45.00
40654;DHT22;26344;45.532;9.232;2024-01-15T12:56:33;37.20;45.20
40654;DHT22;26344;45.532;9.232;2024-01-15T12:58:59;37.40;45.40
40654;DHT22;26344;45.532;9.232;2024-01-15T13:01:24;37.40;45.60
40654;DHT22;26344;45.532;9.232;2024-01-15T13:03:50;37.40;45.80
40654;DHT22;26344;45.532;9.232;2024-01-15T13:08:50;37.80;45.80
40654;DHT22;26344;45.532;9.232;2024-01-15T13:11:16;37.80;46.10
40654;DHT22;26344;45.532;9.232;2024-01-15T13:13:54;39.60;48.60
40654;DHT22;26344;45.532;9.232;2024-01-15T13:16:19;38.10;46.20
40654;DHT22;26344;45.532;9.232;2024-01-15T13:18:58;38.50;45.70
40654;DHT22;26344;45.532;9.232;2024-01-15T13:21:25;38.80;45.90
40654;DHT22;26344;45.532;9.232;2024-01-15T13:23:50;38.80;45.20
40654;DHT22;26344;45.532;9.232;2024-01-15T13:26:16;39.10;45.10
40654;DHT22;26344;45.532;9.232;2024-01-15T13:28:43;39.10;44.90
40654;DHT22;26344;45.532;9.232;2024-01-15T13:31:09;39.20;44.70
40654;DHT22;26344;45.532;9.232;2024-01-15T13:33:35;39.20;45.30
40654;DHT22;26344;45.532;9.232;2024-01-15T13:36:00;39.00;45.20
40654;DHT22;26344;45.532;9.232;2024-01-15T13:38:26;39.00;44.60
40654;DHT22;26344;45.532;9.232;2024-01-15T13:40:53;38.60;44.90
40654;DHT22;26344;45.532;9.232;2024-01-15T13:43:20;38.40;44.20
40654;DHT22;26344;45.532;9.232;2024-01-15T13:45:46;38.20;44.40
40654;DHT22;26344;45.532;9.232;2024-01-15T13:48:12;38.80;45.80
40654;DHT22;26344;45.532;9.232;2024-01-15T13:50:40;39.60;45.10
40654;DHT22;26344;45.532;9.232;2024-01-15T13:53:06;39.70;44.70
40654;DHT22;26344;45.532;9.232;2024-01-15T13:55:31;39.90;44.80
40654;DHT22;26344;45.532;9.232;2024-01-15T13:57:57;40.10;44.60
40654;DHT22;26344;45.532;9.232;2024-01-15T14:00:22;40.30;44.80
40654;DHT22;26344;45.532;9.232;2024-01-15T14:02:48;38.00;43.30
40654;DHT22;26344;45.532;9.232;2024-01-15T14:05:14;40.30;44.40
40654;DHT22;26344;45.532;9.232;2024-01-15T14:07:40;40.60;44.70
40654;DHT22;26344;45.532;9.232;2024-01-15T14:10:05;40.50;44.60
40654;DHT22;26344;45.532;9.232;2024-01-15T14:12:33;40.30;44.20
40654;DHT22;26344;45.532;9.232;2024-01-15T14:14:59;40.00;44.20
40654;DHT22;26344;45.532;9.232;2024-01-15T14:17:24;39.80;44.30
40654;DHT22;26344;45.532;9.232;2024-01-15T14:19:50;39.70;44.50
40654;DHT22;26344;45.532;9.232;2024-01-15T14:22:15;39.60;44.60
40654;DHT22;26344;45.532;9.232;2024-01-15T14:24:41;39.50;44.60
40654;DHT22;26344;45.532;9.232;2024-01-15T14:27:07;39.20;44.70
40654;DHT22;26344;45.532;9.232;2024-01-15T14:29:32;39.00;44.30
40654;DHT22;26344;45.532;9.232;2024-01-15T14:31:58;38.80;44.30
40654;DHT22;26344;45.532;9.232;2024-01-15T14:34:25;38.70;45.00
40654;DHT22;26344;45.532;9.232;2024-01-15T14:36:51;36.30;42.90
40654;DHT22;26344;45.532;9.232;2024-01-15T14:39:19;37.30;45.30
40654;DHT22;26344;45.532;9.232;2024-01-15T14:41:44;34.90;44.70
40654;DHT22;26344;45.532;9.232;2024-01-15T14:44:13;31.40;44.90
40654;DHT22;26344;45.532;9.232;2024-01-15T14:46:39;30.80;46.70
40654;DHT22;26344;45.532;9.232;2024-01-15T14:49:11;28.10;47.10
40654;DHT22;26344;45.532;9.232;2024-01-15T14:54:53;27.10;50.00
40654;DHT22;26344;45.532;9.232;2024-01-15T14:58:06;26.30;52.60
40654;DHT22;26344;45.532;9.232;2024-01-15T15:00:22;26.20;54.20
40654;DHT22;26344;45.532;9.232;2024-01-15T15:02:48;24.60;52.60
40654;DHT22;26344;45.532;9.232;2024-01-15T15:07:42;23.80;53.30
40654;DHT22;26344;45.532;9.232;2024-01-15T15:10:08;23.30;54.20
40654;DHT22;26344;45.532;9.232;2024-01-15T15:12:34;22.70;55.60
40654;DHT22;26344;45.532;9.232;2024-01-15T15:15:08;22.20;56.40
40654;DHT22;26344;45.532;9.232;2024-01-15T15:18:00;21.80;56.70
40654;DHT22;26344;45.532;9.232;2024-01-15T15:20:26;21.20;58.40
40654;DHT22;26344;45.532;9.232;2024-01-15T15:22:51;20.80;58.00
40654;DHT22;26344;45.532;9.232;2024-01-15T15:25:21;20.30;58.00
40654;DHT22;26344;45.532;9.232;2024-01-15T15:27:47;19.90;58.70
40654;DHT22;26344;45.532;9.232;2024-01-15T15:30:13;19.70;59.90
40654;DHT22;26344;45.532;9.232;2024-01-15T15:32:38;19.40;60.50
40654;DHT22;26344;45.532;9.232;2024-01-15T15:35:04;19.10;61.20
40654;DHT22;26344;45.532;9.232;2024-01-15T15:37:29;18.80;61.70
40654;DHT22;26344;45.532;9.232;2024-01-15T15:39:55;18.60;62.20
40654;DHT22;26344;45.532;9.232;2024-01-15T15:42:21;18.50;62.50
40654;DHT22;26344;45.532;9.232;2024-01-15T15:44:49;19.60;63.60
40654;DHT22;26344;45.532;9.232;2024-01-15T15:47:16;18.10;63.40
40654;DHT22;26344;45.532;9.232;2024-01-15T15:49:41;17.90;63.70
40654;DHT22;26344;45.532;9.232;2024-01-15T15:52:07;17.80;64.10
40654;DHT22;26344;45.532;9.232;2024-01-15T15:54:33;17.60;64.60
40654;DHT22;26344;45.532;9.232;2024-01-15T15:56:58;17.50;65.10
40654;DHT22;26344;45.532;9.232;2024-01-15T15:59:24;17.40;65.50
40654;DHT22;26344;45.532;9.232;2024-01-15T16:01:49;17.20;65.70
40654;DHT22;26344;45.532;9.232;2024-01-15T16:04:15;17.10;66.10
40654;DHT22;26344;45.532;9.232;2024-01-15T16:06:41;17.00;66.50